createdAt,value
2022-08-24T00:01:48.513Z,8.70
2022-08-24T00:06:46.846Z,10.38
2022-08-24T00:11:45.196Z,7.28
2022-08-24T00:16:45.053Z,7.80
2022-08-24T00:21:43.336Z,8.55
2022-08-24T00:26:41.649Z,8.18
2022-08-24T00:31:40.164Z,6.93
2022-08-24T00:36:39.936Z,9.48
2022-08-24T00:41:41.424Z,12.38
2022-08-24T00:46:43.674Z,10.57
2022-08-24T00:51:49.914Z,10.02
2022-08-24T00:56:54.147Z,12.60
2022-08-24T01:01:53.370Z,11.35
2022-08-24T01:06:53.113Z,12.55
2022-08-24T01:11:51.477Z,9.10
2022-08-24T01:17:07.263Z,9.80
2022-08-24T01:22:17.484Z,11.18
2022-08-24T01:27:19.175Z,7.10
2022-08-24T01:32:20.572Z,9.10
2022-08-24T01:37:18.895Z,9.60
2022-08-24T01:42:18.665Z,11.88
2022-08-24T01:47:20.151Z,8.85
2022-08-24T01:52:20.083Z,7.18
2022-08-24T01:57:20.473Z,7.30
2022-08-24T02:02:24.102Z,9.17
2022-08-24T02:07:22.912Z,7.53
2022-08-24T02:12:22.965Z,6.78
2022-08-24T02:17:22.172Z,8.80
2022-08-24T02:22:21.924Z,6.13
2022-08-24T02:27:20.424Z,7.38
2022-08-24T02:32:20.407Z,5.22
2022-08-24T02:37:20.237Z,9.23
2022-08-24T02:42:18.651Z,5.82
2022-08-24T02:47:17.712Z,6.28
2022-08-24T02:52:17.412Z,7.68
2022-08-24T02:57:15.760Z,4.60
2022-08-24T03:02:14.711Z,5.40
2022-08-24T03:07:13.349Z,6.80
2022-08-24T03:12:13.223Z,6.38
2022-08-24T03:17:11.540Z,5.28
2022-08-24T03:22:09.977Z,5.18
2022-08-24T03:27:08.335Z,8.20
2022-08-24T03:32:08.297Z,7.18
2022-08-24T03:37:06.608Z,7.40
2022-08-24T03:42:05.723Z,7.70
2022-08-24T03:47:04.073Z,14.50
2022-08-24T03:52:04.985Z,8.77
2022-08-24T03:57:03.311Z,7.13
2022-08-24T04:02:01.952Z,6.88
2022-08-24T04:07:00.523Z,14.35
2022-08-24T04:12:00.733Z,7.65
2022-08-24T04:16:59.022Z,10.32
2022-08-24T04:22:03.948Z,7.43
2022-08-24T04:27:03.821Z,12.70
2022-08-24T04:32:03.399Z,8.60
2022-08-24T04:37:01.921Z,6.53
2022-08-24T04:42:03.277Z,7.22
2022-08-24T04:47:08.499Z,10.52
2022-08-24T04:52:10.017Z,6.55
2022-08-24T04:57:08.524Z,9.95
2022-08-24T05:02:09.062Z,11.27
2022-08-24T05:07:07.676Z,17.52
2022-08-24T05:12:06.457Z,9.88
2022-08-24T05:17:10.845Z,10.63
2022-08-24T05:22:09.243Z,12.32
2022-08-24T05:27:11.289Z,10.23
2022-08-24T05:32:14.029Z,14.98
2022-08-24T05:37:13.324Z,8.77
2022-08-24T05:42:37.152Z,7.95
2022-08-24T05:47:40.472Z,6.60
2022-08-24T05:52:57.420Z,15.05
2022-08-24T05:57:56.878Z,6.88
2022-08-24T06:02:58.358Z,9.63
2022-08-24T06:07:57.136Z,5.68
2022-08-24T06:12:55.660Z,6.78
2022-08-24T06:17:54.609Z,6.82
2022-08-24T06:22:54.788Z,4.60
2022-08-24T06:27:55.329Z,8.60
2022-08-24T06:32:53.652Z,8.82
2022-08-24T06:38:01.473Z,9.57
2022-08-24T06:43:03.044Z,7.05
2022-08-24T06:48:18.357Z,6.50
2022-08-24T06:53:18.918Z,4.15
2022-08-24T06:58:18.804Z,11.63
2022-08-24T07:03:17.292Z,10.10
2022-08-24T07:08:25.341Z,9.05
2022-08-24T07:13:23.801Z,7.38
2022-08-24T07:18:22.354Z,9.43
2022-08-24T07:23:22.612Z,5.97
2022-08-24T07:28:41.525Z,5.72
2022-08-24T07:33:41.929Z,6.25
2022-08-24T07:38:40.779Z,4.00
2022-08-24T07:43:43.023Z,8.30
2022-08-24T07:48:43.370Z,7.95
2022-08-24T07:53:53.642Z,8.45
2022-08-24T07:58:58.032Z,8.95
2022-08-24T08:03:57.808Z,6.60
2022-08-24T08:08:56.253Z,5.47
2022-08-24T08:13:55.370Z,6.30
2022-08-24T08:19:09.280Z,4.57
2022-08-24T08:24:20.491Z,9.00
2022-08-24T08:29:24.996Z,11.50
2022-08-24T08:34:24.183Z,9.48
2022-08-24T08:39:25.905Z,5.05
2022-08-24T08:44:37.413Z,9.80
2022-08-24T08:49:45.223Z,8.38
2022-08-24T08:54:48.231Z,10.23
2022-08-24T08:59:57.937Z,6.53
2022-08-24T09:05:12.147Z,5.40
2022-08-24T09:10:25.509Z,7.03
2022-08-24T09:15:33.797Z,14.45
2022-08-24T09:20:51.024Z,12.90
2022-08-24T09:25:52.033Z,5.70
2022-08-24T09:31:02.085Z,10.10
2022-08-24T09:36:10.888Z,8.80
2022-08-24T09:41:25.974Z,12.88
2022-08-24T09:46:41.804Z,9.85
2022-08-24T09:52:06.962Z,6.63
2022-08-24T09:57:19.916Z,12.45
2022-08-24T10:02:28.758Z,10.57
2022-08-24T10:07:31.605Z,11.00
2022-08-24T10:12:36.516Z,8.20
2022-08-24T10:17:40.547Z,9.82
2022-08-24T10:23:01.947Z,12.45
2022-08-24T10:28:10.475Z,15.50
2022-08-24T10:33:14.340Z,14.05
2022-08-24T10:38:35.878Z,19.42
2022-08-24T10:43:51.479Z,15.23
2022-08-24T10:49:06.096Z,11.45
2022-08-24T10:54:05.029Z,9.52
2022-08-24T10:59:08.349Z,17.20
2022-08-24T11:04:09.211Z,11.02
2022-08-24T11:09:09.421Z,16.13
2022-08-24T11:14:10.375Z,15.00
2022-08-24T11:19:10.831Z,13.98
2022-08-24T11:24:11.838Z,12.85
2022-08-24T11:29:11.487Z,9.82
2022-08-24T11:34:10.778Z,14.15
2022-08-24T11:39:14.300Z,13.70
2022-08-24T11:44:16.477Z,18.00
2022-08-24T11:49:20.817Z,9.65
2022-08-24T11:54:24.796Z,17.10
2022-08-24T11:59:28.227Z,21.15
2022-08-24T12:04:39.573Z,15.85
2022-08-24T12:09:45.032Z,8.25
2022-08-24T12:14:46.214Z,22.00
2022-08-24T12:19:47.649Z,19.05
2022-08-24T12:24:47.732Z,20.35
2022-08-24T12:29:49.651Z,16.33
2022-08-24T12:34:53.489Z,20.88
2022-08-24T12:39:56.710Z,24.42
2022-08-24T12:45:00.213Z,24.05
2022-08-24T12:55:16.334Z,16.05
2022-08-24T13:00:18.311Z,10.15
2022-08-24T13:05:18.657Z,17.25
2022-08-24T13:10:35.171Z,21.95
2022-08-24T13:15:53.571Z,17.25
2022-08-24T13:20:55.883Z,18.35
2022-08-24T13:25:56.470Z,19.10
2022-08-24T13:31:11.312Z,14.20
2022-08-24T13:36:37.484Z,20.83
2022-08-24T13:41:50.533Z,19.63
2022-08-24T13:46:53.920Z,20.77
2022-08-24T13:57:03.913Z,25.55
2022-08-24T14:02:08.779Z,18.85
2022-08-24T14:07:12.440Z,18.70
2022-08-24T14:12:18.848Z,23.80
2022-08-24T14:17:39.495Z,13.82
2022-08-24T14:22:40.649Z,23.70
2022-08-24T14:27:41.237Z,17.23
2022-08-24T14:32:47.853Z,19.10
2022-08-24T14:38:04.433Z,16.58
2022-08-24T14:43:07.953Z,26.95
2022-08-24T14:48:10.996Z,14.07
2022-08-24T14:53:30.449Z,21.48
2022-08-24T14:58:35.891Z,17.63
2022-08-24T15:03:46.707Z,21.42
2022-08-24T15:08:45.045Z,15.65
2022-08-24T15:13:45.756Z,14.55
2022-08-24T15:18:48.940Z,18.75
2022-08-24T15:23:51.715Z,18.08
2022-08-24T15:28:55.197Z,21.85
2022-08-24T15:33:58.076Z,12.85
2022-08-24T15:38:56.759Z,27.70
2022-08-24T15:43:58.693Z,20.83
2022-08-24T15:49:02.631Z,23.88
2022-08-24T15:54:14.839Z,14.90
2022-08-24T15:59:14.298Z,18.85
2022-08-24T16:04:15.175Z,17.55
2022-08-24T16:09:33.505Z,15.75
2022-08-24T16:14:33.261Z,22.90
2022-08-24T16:19:34.499Z,14.30
2022-08-24T16:24:33.633Z,19.02
2022-08-24T16:29:45.717Z,21.63
2022-08-24T16:34:47.465Z,19.85
2022-08-24T16:39:45.752Z,21.50
2022-08-24T16:44:45.001Z,24.10
2022-08-24T16:49:43.211Z,9.52
2022-08-24T16:54:43.278Z,17.17
2022-08-24T16:59:42.813Z,12.60
2022-08-24T17:04:44.078Z,18.60
2022-08-24T17:09:44.415Z,11.70
2022-08-24T17:14:43.582Z,14.38
2022-08-24T17:19:43.442Z,21.20
2022-08-24T17:24:43.342Z,12.88
2022-08-24T17:29:41.752Z,10.75
2022-08-24T17:34:41.037Z,26.17
2022-08-24T17:39:39.327Z,13.02
2022-08-24T17:44:39.381Z,14.48
2022-08-24T17:49:38.549Z,11.43
2022-08-24T17:54:36.888Z,17.85
2022-08-24T17:59:36.215Z,17.13
2022-08-24T18:04:37.001Z,12.38
2022-08-24T18:09:37.264Z,16.90
2022-08-24T18:14:36.371Z,11.60
2022-08-24T18:19:36.510Z,15.00
2022-08-24T18:24:35.160Z,18.95
2022-08-24T18:29:33.630Z,18.38
2022-08-24T18:34:32.872Z,15.55
2022-08-24T18:39:33.798Z,11.20
2022-08-24T18:44:32.424Z,18.35
2022-08-24T18:49:30.647Z,17.35
2022-08-24T18:54:32.208Z,30.38
2022-08-24T18:59:31.900Z,16.98
2022-08-24T19:04:33.462Z,19.58
2022-08-24T19:09:34.304Z,15.95
2022-08-24T19:14:34.448Z,23.42
2022-08-24T19:19:32.725Z,20.55
2022-08-24T19:24:32.449Z,31.88
2022-08-24T19:29:54.465Z,14.23
2022-08-24T19:34:51.191Z,19.10
2022-08-24T19:39:50.914Z,16.65
2022-08-24T19:45:07.156Z,19.88
2022-08-24T19:50:08.445Z,15.98
2022-08-24T19:55:07.937Z,21.17
2022-08-24T20:00:20.433Z,20.70
2022-08-24T20:05:21.340Z,20.48
2022-08-24T20:10:20.909Z,18.75
2022-08-24T20:15:19.797Z,25.92
2022-08-24T20:20:20.041Z,28.38
2022-08-24T20:25:20.536Z,31.13
2022-08-24T20:30:18.941Z,20.60
2022-08-24T20:35:17.300Z,17.88
2022-08-24T20:40:16.920Z,17.92
2022-08-24T20:45:16.686Z,13.73
2022-08-24T20:50:16.359Z,23.70
2022-08-24T20:55:15.108Z,17.48
2022-08-24T21:00:14.102Z,14.05
2022-08-24T21:05:14.190Z,20.45
2022-08-24T21:10:12.601Z,16.63
2022-08-24T21:15:11.229Z,19.65
2022-08-24T21:20:10.595Z,20.35
2022-08-24T21:25:11.573Z,14.20
2022-08-24T21:30:12.121Z,17.95
2022-08-24T21:35:11.199Z,14.20
2022-08-24T21:40:15.064Z,16.45
2022-08-24T21:45:13.449Z,19.95
2022-08-24T21:50:11.956Z,17.83
2022-08-24T21:55:14.306Z,15.52
2022-08-24T22:00:18.050Z,16.23
2022-08-24T22:05:16.596Z,14.73
2022-08-24T22:10:15.439Z,19.05
2022-08-24T22:15:16.848Z,17.95
2022-08-24T22:20:23.513Z,18.98
2022-08-24T22:25:23.288Z,14.75
2022-08-24T22:30:23.151Z,22.05
2022-08-24T22:35:21.500Z,17.27
2022-08-24T22:40:19.955Z,9.77
2022-08-24T22:45:18.300Z,17.95
2022-08-24T22:50:18.046Z,20.55
2022-08-24T22:55:16.263Z,19.25
2022-08-24T23:00:15.050Z,15.75
2022-08-24T23:05:15.291Z,10.63
2022-08-24T23:10:16.453Z,23.73
2022-08-24T23:15:14.748Z,27.23
2022-08-24T23:20:13.453Z,27.40
2022-08-24T23:25:12.802Z,17.08
2022-08-24T23:30:13.930Z,26.27
2022-08-24T23:35:12.146Z,24.80
2022-08-24T23:40:13.608Z,21.20
2022-08-24T23:45:13.992Z,14.13
2022-08-24T23:50:12.374Z,21.65
2022-08-24T23:55:21.358Z,23.17
